createdAt,value
2019-05-11T00:00:41.537Z,14.10
2019-05-11T00:01:41.536Z,15.10
2019-05-11T00:02:41.533Z,14.10
2019-05-11T00:03:41.536Z,14.50
2019-05-11T00:04:41.529Z,15.60
2019-05-11T00:05:41.512Z,15.00
2019-05-11T00:06:41.510Z,15.70
2019-05-11T00:07:41.515Z,15.80
2019-05-11T00:08:41.492Z,16.00
2019-05-11T00:09:56.998Z,15.90
2019-05-11T00:10:43.486Z,15.20
2019-05-11T00:11:41.502Z,16.10
2019-05-11T00:12:41.477Z,16.30
2019-05-11T00:13:41.463Z,16.70
2019-05-11T00:14:41.457Z,16.50
2019-05-11T00:15:41.448Z,16.20
2019-05-11T00:16:41.436Z,16.50
2019-05-11T00:17:41.440Z,15.60
2019-05-11T00:18:41.418Z,15.80
2019-05-11T00:19:41.421Z,14.50
2019-05-11T00:20:41.407Z,14.90
2019-05-11T00:21:41.396Z,15.00
2019-05-11T00:22:41.402Z,15.10
2019-05-11T00:23:41.388Z,14.70
2019-05-11T00:24:41.373Z,14.60
2019-05-11T00:25:41.375Z,15.00
2019-05-11T00:26:41.358Z,15.20
2019-05-11T00:27:41.365Z,14.50
2019-05-11T00:28:41.345Z,15.40
2019-05-11T00:29:41.534Z,14.70
2019-05-11T00:30:41.323Z,15.40
2019-05-11T00:31:41.320Z,16.00
2019-05-11T00:32:41.319Z,15.30
2019-05-11T00:33:41.304Z,15.40
2019-05-11T00:34:41.292Z,15.90
2019-05-11T00:35:41.289Z,15.40
2019-05-11T00:36:41.295Z,16.20
2019-05-11T00:37:41.286Z,16.40
2019-05-11T00:38:41.267Z,16.50
2019-05-11T00:39:41.258Z,16.50
2019-05-11T00:40:41.250Z,16.30
2019-05-11T00:41:41.241Z,16.50
2019-05-11T00:42:41.246Z,16.90
2019-05-11T00:43:41.226Z,17.10
2019-05-11T00:44:41.232Z,16.00
2019-05-11T00:45:41.216Z,16.90
2019-05-11T00:46:41.215Z,15.80
2019-05-11T00:47:41.217Z,16.70
2019-05-11T00:48:42.195Z,16.70
2019-05-11T00:49:41.190Z,16.10
2019-05-11T00:50:41.275Z,15.80
2019-05-11T00:51:41.176Z,15.20
2019-05-11T00:52:41.171Z,16.10
2019-05-11T00:53:41.160Z,16.30
2019-05-11T00:54:41.155Z,15.90
2019-05-11T00:55:41.144Z,16.00
2019-05-11T00:56:41.143Z,15.50
2019-05-11T00:57:41.158Z,15.10
2019-05-11T00:58:41.131Z,15.80
2019-05-11T00:59:41.113Z,15.50
2019-05-11T01:00:41.119Z,16.00
2019-05-11T01:01:41.102Z,15.70
2019-05-11T01:02:41.115Z,15.70
2019-05-11T01:03:41.099Z,16.30
2019-05-11T01:04:41.110Z,17.20
2019-05-11T01:05:41.090Z,15.60
2019-05-11T01:06:41.092Z,16.00
2019-05-11T01:07:41.084Z,16.00
2019-05-11T01:08:41.093Z,15.70
2019-05-11T01:09:41.070Z,16.70
2019-05-11T01:10:42.662Z,17.00
2019-05-11T01:11:42.051Z,16.80
2019-05-11T01:12:41.053Z,17.40
2019-05-11T01:13:41.053Z,17.30
2019-05-11T01:14:41.027Z,16.90
2019-05-11T01:15:41.011Z,16.90
2019-05-11T01:16:42.028Z,17.20
2019-05-11T01:17:41.027Z,16.00
2019-05-11T01:18:41.028Z,17.20
2019-05-11T01:19:41.083Z,16.80
2019-05-11T01:20:41.015Z,17.40
2019-05-11T01:21:41.002Z,17.10
2019-05-11T01:22:40.995Z,17.00
2019-05-11T01:23:40.993Z,17.50
2019-05-11T01:24:40.980Z,17.90
2019-05-11T01:25:40.970Z,18.30
2019-05-11T01:26:40.973Z,18.50
2019-05-11T01:27:40.970Z,18.20
2019-05-11T01:28:40.975Z,18.90
2019-05-11T01:29:40.950Z,19.10
2019-05-11T01:30:40.956Z,20.10
2019-05-11T01:31:40.937Z,20.20
2019-05-11T01:32:40.928Z,19.40
2019-05-11T01:33:40.945Z,19.60
2019-05-11T01:34:47.603Z,19.20
2019-05-11T01:35:40.916Z,18.60
2019-05-11T01:36:40.911Z,20.10
2019-05-11T01:37:40.900Z,19.90
2019-05-11T01:38:40.897Z,20.80
2019-05-11T01:39:40.876Z,21.00
2019-05-11T01:40:40.871Z,20.40
2019-05-11T01:41:40.877Z,20.50
2019-05-11T01:42:40.855Z,19.40
2019-05-11T01:43:40.853Z,20.10
2019-05-11T01:44:40.854Z,19.90
2019-05-11T01:45:40.841Z,20.40
2019-05-11T01:46:40.835Z,19.80
2019-05-11T01:47:40.831Z,19.60
2019-05-11T01:48:40.821Z,20.50
2019-05-11T01:49:40.821Z,22.60
2019-05-11T01:50:40.800Z,22.20
2019-05-11T01:51:40.802Z,22.20
2019-05-11T01:52:40.799Z,22.20
2019-05-11T01:53:40.784Z,21.50
2019-05-11T01:54:40.789Z,22.60
2019-05-11T01:55:40.768Z,23.20
2019-05-11T01:56:40.756Z,23.30
2019-05-11T01:57:40.755Z,24.50
2019-05-11T01:58:40.748Z,24.00
2019-05-11T01:59:40.740Z,27.20
2019-05-11T02:00:40.727Z,26.60
2019-05-11T02:01:40.721Z,26.50
2019-05-11T02:02:40.724Z,25.90
2019-05-11T02:03:40.709Z,25.20
2019-05-11T02:04:40.713Z,26.30
2019-05-11T02:05:40.698Z,26.40
2019-05-11T02:06:40.686Z,25.90
2019-05-11T02:07:40.686Z,26.70
2019-05-11T02:08:40.678Z,26.10
2019-05-11T02:09:40.676Z,25.00
2019-05-11T02:10:40.661Z,25.40
2019-05-11T02:11:40.668Z,25.80
2019-05-11T02:12:40.656Z,24.80
2019-05-11T02:13:40.648Z,25.50
2019-05-11T02:14:40.649Z,25.70
2019-05-11T02:15:40.632Z,26.50
2019-05-11T02:16:41.590Z,28.00
2019-05-11T02:17:40.632Z,28.90
2019-05-11T02:18:40.620Z,29.10
2019-05-11T02:19:40.629Z,28.80
2019-05-11T02:20:40.614Z,27.60
2019-05-11T02:21:40.607Z,26.60
2019-05-11T02:22:40.593Z,29.10
2019-05-11T02:23:40.585Z,29.20
2019-05-11T02:24:40.613Z,29.80
2019-05-11T02:25:40.587Z,31.80
2019-05-11T02:26:40.576Z,28.60
2019-05-11T02:27:40.569Z,31.00
2019-05-11T02:28:40.564Z,30.70
2019-05-11T02:29:41.564Z,31.80
2019-05-11T02:30:41.564Z,31.80
2019-05-11T02:31:40.540Z,31.00
2019-05-11T02:32:40.557Z,30.50
2019-05-11T02:33:40.556Z,31.10
2019-05-11T02:34:40.543Z,30.90
2019-05-11T02:35:40.555Z,30.40
2019-05-11T02:36:40.525Z,30.80
2019-05-11T02:37:40.575Z,30.80
2019-05-11T02:38:40.501Z,31.10
2019-05-11T02:39:40.522Z,30.40
2019-05-11T02:40:40.513Z,30.00
2019-05-11T02:41:40.499Z,28.50
2019-05-11T02:42:40.498Z,28.90
2019-05-11T02:43:40.498Z,31.00
2019-05-11T02:44:40.480Z,31.00
2019-05-11T02:45:40.495Z,32.70
2019-05-11T02:46:40.471Z,31.90
2019-05-11T02:47:40.470Z,30.60
2019-05-11T02:48:40.456Z,31.50
2019-05-11T02:49:40.451Z,30.20
2019-05-11T02:50:40.458Z,32.80
2019-05-11T02:51:40.432Z,35.20
2019-05-11T02:52:40.456Z,30.50
2019-05-11T02:53:40.420Z,33.30
2019-05-11T02:54:40.415Z,32.40
2019-05-11T02:55:40.434Z,31.90
2019-05-11T02:56:40.397Z,34.10
2019-05-11T02:57:40.386Z,30.40
2019-05-11T02:58:40.380Z,31.10
2019-05-11T02:59:40.400Z,31.60
2019-05-11T03:00:40.430Z,27.80
2019-05-11T03:01:40.373Z,29.70
2019-05-11T03:02:40.354Z,26.30
2019-05-11T03:03:40.336Z,28.50
2019-05-11T03:04:40.332Z,28.20
2019-05-11T03:05:40.328Z,30.10
2019-05-11T03:06:40.328Z,32.20
2019-05-11T03:07:40.306Z,31.80
2019-05-11T03:08:40.311Z,36.30
2019-05-11T03:09:40.292Z,36.90
2019-05-11T03:10:40.308Z,37.70
2019-05-11T03:11:55.006Z,39.40
2019-05-11T03:12:42.333Z,36.60
2019-05-11T03:13:40.296Z,35.10
2019-05-11T03:14:40.298Z,36.40
2019-05-11T03:15:40.293Z,37.20
2019-05-11T03:16:40.292Z,34.80
2019-05-11T03:17:40.359Z,34.40
2019-05-11T03:18:40.293Z,35.70
2019-05-11T03:19:40.303Z,35.40
2019-05-11T03:20:40.284Z,35.60
2019-05-11T03:21:40.308Z,36.80
2019-05-11T03:22:40.273Z,37.20
2019-05-11T03:23:40.264Z,34.80
2019-05-11T03:24:40.264Z,38.40
2019-05-11T03:25:40.259Z,39.70
2019-05-11T03:26:40.249Z,42.30
2019-05-11T03:27:40.267Z,38.40
2019-05-11T03:28:40.247Z,39.00
2019-05-11T03:29:40.217Z,42.20
2019-05-11T03:30:40.213Z,39.80
2019-05-11T03:31:40.232Z,37.50
2019-05-11T03:32:40.200Z,39.20
2019-05-11T03:33:40.198Z,38.90
2019-05-11T03:34:40.201Z,42.90
2019-05-11T03:35:40.231Z,38.60
2019-05-11T03:36:40.183Z,40.70
2019-05-11T03:37:40.163Z,44.20
2019-05-11T03:38:40.157Z,39.10
2019-05-11T03:39:40.153Z,41.10
2019-05-11T03:40:40.134Z,45.30
2019-05-11T03:41:40.139Z,38.60
2019-05-11T03:42:40.131Z,40.00
2019-05-11T03:43:40.170Z,45.60
2019-05-11T03:44:41.028Z,39.80
2019-05-11T03:45:40.098Z,44.00
2019-05-11T03:46:40.104Z,45.30
2019-05-11T03:47:40.093Z,41.80
2019-05-11T03:48:40.091Z,46.20
2019-05-11T03:49:40.070Z,42.00
2019-05-11T03:50:40.061Z,43.20
2019-05-11T03:51:40.065Z,43.70
2019-05-11T03:52:40.050Z,40.30
2019-05-11T03:53:40.045Z,38.80
2019-05-11T03:54:40.596Z,37.90
2019-05-11T03:55:40.029Z,38.30
2019-05-11T03:56:40.052Z,38.30
2019-05-11T03:57:40.017Z,39.00
2019-05-11T03:58:40.001Z,37.80
2019-05-11T03:59:40.003Z,37.10
2019-05-11T04:00:39.999Z,38.00
2019-05-11T04:01:39.991Z,35.70
2019-05-11T04:02:39.990Z,37.50
2019-05-11T04:03:39.966Z,41.10
2019-05-11T04:04:40.003Z,38.30
2019-05-11T04:05:39.959Z,37.50
2019-05-11T04:06:39.977Z,36.50
2019-05-11T04:07:39.965Z,36.00
2019-05-11T04:08:40.602Z,37.20
2019-05-11T04:09:39.925Z,38.30
2019-05-11T04:10:39.923Z,41.00
2019-05-11T04:11:39.918Z,41.10
2019-05-11T04:12:39.912Z,37.00
2019-05-11T04:13:39.897Z,33.40
2019-05-11T04:14:39.889Z,34.10
2019-05-11T04:15:39.888Z,37.50
2019-05-11T04:16:39.872Z,38.80
2019-05-11T04:17:39.877Z,40.90
2019-05-11T04:18:39.858Z,43.20
2019-05-11T04:19:39.855Z,45.40
2019-05-11T04:20:39.844Z,42.10
2019-05-11T04:21:39.836Z,39.10
2019-05-11T04:22:39.843Z,38.30
2019-05-11T04:23:39.818Z,38.30
2019-05-11T04:24:39.828Z,39.30
2019-05-11T04:25:39.819Z,39.00
2019-05-11T04:26:39.801Z,42.20
2019-05-11T04:27:39.829Z,39.90
2019-05-11T04:28:39.808Z,42.10
2019-05-11T04:29:40.796Z,39.50
2019-05-11T04:30:39.804Z,41.10
2019-05-11T04:31:39.808Z,35.40
2019-05-11T04:32:39.801Z,36.10
2019-05-11T04:33:39.791Z,36.40
2019-05-11T04:34:39.780Z,39.10
2019-05-11T04:35:39.789Z,37.10
2019-05-11T04:36:39.780Z,41.20
2019-05-11T04:37:39.767Z,42.60
2019-05-11T04:38:39.756Z,43.80
2019-05-11T04:39:39.751Z,43.90
2019-05-11T04:40:39.753Z,47.30
2019-05-11T04:41:39.844Z,38.10
2019-05-11T04:42:54.383Z,43.50
2019-05-11T04:43:41.723Z,37.20
2019-05-11T04:44:39.714Z,36.90
2019-05-11T04:45:39.712Z,42.60
2019-05-11T04:46:39.703Z,35.00
2019-05-11T04:47:39.701Z,37.90
2019-05-11T04:48:39.696Z,45.30
2019-05-11T04:49:40.693Z,40.70
2019-05-11T04:50:39.704Z,43.40
2019-05-11T04:51:39.702Z,42.70
2019-05-11T04:52:39.687Z,44.40
2019-05-11T04:53:39.687Z,40.90
2019-05-11T04:54:39.682Z,43.90
2019-05-11T04:55:39.677Z,41.10
2019-05-11T04:56:39.671Z,43.90
2019-05-11T04:57:39.655Z,43.50
2019-05-11T04:58:39.649Z,44.10
2019-05-11T04:59:39.639Z,43.60
2019-05-11T05:00:39.633Z,43.20
2019-05-11T05:01:39.634Z,44.70
2019-05-11T05:02:39.610Z,47.30
2019-05-11T05:03:41.140Z,45.00
2019-05-11T05:04:40.602Z,46.00
2019-05-11T05:05:39.596Z,46.80
2019-05-11T05:06:39.588Z,49.10
2019-05-11T05:07:47.661Z,50.20
2019-05-11T05:08:41.568Z,48.80
2019-05-11T05:09:42.513Z,51.70
2019-05-11T05:10:41.549Z,49.20
2019-05-11T05:11:39.556Z,49.70
2019-05-11T05:12:39.561Z,50.40
2019-05-11T05:13:39.547Z,51.30
2019-05-11T05:14:39.550Z,46.30
2019-05-11T05:15:39.536Z,50.80
2019-05-11T05:16:39.540Z,46.30
2019-05-11T05:17:39.524Z,49.80
2019-05-11T05:18:39.514Z,46.00
2019-05-11T05:19:39.508Z,42.20
2019-05-11T05:20:39.499Z,44.70
2019-05-11T05:21:39.577Z,46.30
2019-05-11T05:22:39.500Z,44.40
2019-05-11T05:23:39.476Z,42.00
2019-05-11T05:24:39.481Z,41.70
2019-05-11T05:25:39.459Z,47.20
2019-05-11T05:26:39.457Z,38.40
2019-05-11T05:27:39.446Z,41.20
2019-05-11T05:28:39.439Z,39.20
2019-05-11T05:29:39.457Z,38.50
2019-05-11T05:30:39.424Z,35.70
2019-05-11T05:31:39.432Z,37.40
2019-05-11T05:32:39.425Z,37.30
2019-05-11T05:33:39.409Z,39.80
2019-05-11T05:34:39.409Z,35.80
2019-05-11T05:35:39.397Z,39.40
2019-05-11T05:36:39.393Z,38.30
2019-05-11T05:37:39.384Z,38.10
2019-05-11T05:38:39.370Z,34.50
2019-05-11T05:39:39.363Z,39.70
2019-05-11T05:40:39.354Z,35.90
2019-05-11T05:41:39.390Z,32.60
2019-05-11T05:42:39.337Z,39.90
2019-05-11T05:43:39.324Z,40.10
2019-05-11T05:44:39.345Z,38.50
2019-05-11T05:45:39.336Z,40.10
2019-05-11T05:46:39.354Z,44.00
2019-05-11T05:47:39.354Z,41.60
2019-05-11T05:48:39.323Z,45.00
2019-05-11T05:49:39.334Z,40.80
2019-05-11T05:50:39.317Z,40.80
2019-05-11T05:51:39.314Z,41.00
2019-05-11T05:52:39.331Z,41.20
2019-05-11T05:53:39.321Z,39.50
2019-05-11T05:54:39.319Z,43.40
2019-05-11T05:55:39.302Z,42.70
2019-05-11T05:56:39.295Z,44.60
2019-05-11T05:57:39.304Z,44.40
2019-05-11T05:58:39.295Z,43.50
2019-05-11T05:59:39.276Z,47.50
2019-05-11T06:00:39.270Z,46.70
2019-05-11T06:01:39.278Z,46.40
2019-05-11T06:02:39.334Z,44.50
2019-05-11T06:03:39.284Z,47.10
2019-05-11T06:04:39.272Z,44.40
2019-05-11T06:05:39.280Z,39.60
2019-05-11T06:06:39.295Z,43.40
2019-05-11T06:07:39.281Z,46.10
2019-05-11T06:08:43.000Z,39.90
2019-05-11T06:09:39.258Z,43.20
2019-05-11T06:10:39.251Z,40.60
2019-05-11T06:11:39.239Z,39.50
2019-05-11T06:12:39.242Z,43.70
2019-05-11T06:13:45.062Z,40.80
2019-05-11T06:14:41.214Z,38.20
2019-05-11T06:15:39.215Z,41.00
2019-05-11T06:16:39.203Z,42.10
2019-05-11T06:17:39.207Z,41.40
2019-05-11T06:18:39.194Z,38.90
2019-05-11T06:19:39.186Z,38.20
2019-05-11T06:20:39.172Z,37.10
2019-05-11T06:21:39.183Z,35.10
2019-05-11T06:22:39.176Z,40.20
2019-05-11T06:23:39.152Z,42.10
2019-05-11T06:24:39.182Z,33.50
2019-05-11T06:25:39.166Z,42.70
2019-05-11T06:26:39.158Z,41.00
2019-05-11T06:27:39.156Z,36.80
2019-05-11T06:28:39.141Z,33.30
2019-05-11T06:29:39.152Z,33.70
2019-05-11T06:30:39.131Z,32.90
2019-05-11T06:31:39.119Z,41.00
2019-05-11T06:32:39.124Z,39.70
2019-05-11T06:33:39.110Z,38.00
2019-05-11T06:34:39.092Z,35.60
2019-05-11T06:35:39.087Z,39.60
2019-05-11T06:36:39.074Z,36.30
2019-05-11T06:37:39.117Z,38.00
2019-05-11T06:38:39.097Z,40.90
2019-05-11T06:39:39.083Z,40.30
2019-05-11T06:40:39.073Z,35.40
2019-05-11T06:41:39.070Z,40.00
2019-05-11T06:42:39.081Z,31.60
2019-05-11T06:43:39.080Z,29.10
2019-05-11T06:44:39.069Z,35.20
2019-05-11T06:45:39.056Z,32.80
2019-05-11T06:46:39.054Z,33.50
2019-05-11T06:47:39.043Z,28.80
2019-05-11T06:48:39.048Z,33.50
2019-05-11T06:49:39.038Z,32.80
2019-05-11T06:50:39.028Z,34.40
2019-05-11T06:51:40.554Z,32.70
2019-05-11T06:52:40.008Z,33.40
2019-05-11T06:53:39.030Z,32.10
2019-05-11T06:54:38.991Z,31.70
2019-05-11T06:55:38.969Z,36.30
2019-05-11T06:56:39.979Z,30.50
2019-05-11T06:57:38.991Z,38.20
2019-05-11T06:58:38.997Z,37.00
2019-05-11T06:59:38.993Z,37.50
2019-05-11T07:00:38.976Z,34.30
2019-05-11T07:01:38.963Z,37.30
2019-05-11T07:02:38.965Z,39.20
2019-05-11T07:03:38.963Z,32.10
2019-05-11T07:04:38.949Z,35.50
2019-05-11T07:05:38.934Z,31.90
2019-05-11T07:06:38.926Z,31.40
2019-05-11T07:07:47.440Z,26.50
2019-05-11T07:08:40.948Z,31.20
2019-05-11T07:09:38.930Z,30.80
2019-05-11T07:10:38.931Z,31.30
2019-05-11T07:11:38.910Z,34.70
2019-05-11T07:12:38.902Z,34.40
2019-05-11T07:13:38.910Z,31.00
2019-05-11T07:14:38.889Z,26.20
2019-05-11T07:15:38.885Z,32.10
2019-05-11T07:16:38.880Z,30.80
2019-05-11T07:17:38.872Z,35.30
2019-05-11T07:18:38.875Z,29.10
2019-05-11T07:19:38.851Z,30.80
2019-05-11T07:20:50.049Z,27.60
2019-05-11T07:21:40.841Z,33.00
2019-05-11T07:22:38.832Z,27.30
2019-05-11T07:23:38.854Z,30.10
2019-05-11T07:24:38.811Z,24.00
2019-05-11T07:25:38.811Z,27.70
2019-05-11T07:26:38.799Z,25.00
2019-05-11T07:27:38.808Z,27.80
2019-05-11T07:28:38.802Z,27.10
2019-05-11T07:29:38.806Z,27.10
2019-05-11T07:30:38.791Z,29.00
2019-05-11T07:31:38.789Z,27.30
2019-05-11T07:32:38.783Z,30.00
2019-05-11T07:33:38.770Z,28.10
2019-05-11T07:34:48.743Z,27.50
2019-05-11T07:35:38.754Z,30.00
2019-05-11T07:36:38.957Z,29.30
2019-05-11T07:37:39.754Z,28.20
2019-05-11T07:38:38.734Z,26.70
2019-05-11T07:39:38.745Z,25.70
2019-05-11T07:40:38.720Z,27.80
2019-05-11T07:41:38.920Z,24.00
2019-05-11T07:42:38.709Z,26.60
2019-05-11T07:43:38.702Z,28.80
2019-05-11T07:44:41.707Z,25.60
2019-05-11T07:45:39.686Z,24.70
2019-05-11T07:46:38.684Z,29.10
2019-05-11T07:47:38.685Z,26.70
2019-05-11T07:48:38.883Z,27.70
2019-05-11T07:49:39.673Z,29.10
2019-05-11T07:50:38.904Z,26.30
2019-05-11T07:51:39.643Z,29.50
2019-05-11T07:52:38.648Z,30.70
2019-05-11T07:53:38.634Z,30.20
2019-05-11T07:54:38.699Z,30.10
2019-05-11T07:55:38.706Z,33.30
2019-05-11T07:56:39.153Z,35.60
2019-05-11T07:57:39.605Z,29.10
2019-05-11T07:58:38.889Z,29.10
2019-05-11T07:59:39.589Z,27.60
2019-05-11T08:00:40.048Z,26.50
2019-05-11T08:01:39.580Z,29.70
2019-05-11T08:02:38.942Z,30.70
2019-05-11T08:03:39.551Z,26.90
2019-05-11T08:04:38.561Z,29.20
2019-05-11T08:05:38.707Z,28.30
2019-05-11T08:06:39.543Z,27.10
2019-05-11T08:07:38.521Z,27.30
2019-05-11T08:08:38.691Z,29.40
2019-05-11T08:09:38.533Z,28.70
2019-05-11T08:10:39.165Z,26.80
2019-05-11T08:11:39.522Z,31.10
2019-05-11T08:12:39.411Z,28.30
2019-05-11T08:13:39.482Z,26.80
2019-05-11T08:14:55.957Z,27.20
2019-05-11T08:15:40.469Z,24.50
2019-05-11T08:16:39.353Z,23.50
2019-05-11T08:17:38.457Z,27.70
2019-05-11T08:18:38.852Z,23.90
2019-05-11T08:19:39.433Z,26.40
2019-05-11T08:20:39.429Z,24.70
2019-05-11T08:21:38.955Z,23.90
2019-05-11T08:22:39.429Z,20.30
2019-05-11T08:23:38.407Z,19.30
2019-05-11T08:24:38.413Z,23.10
2019-05-11T08:25:38.405Z,26.80
2019-05-11T08:26:38.706Z,26.60
2019-05-11T08:27:39.379Z,27.70
2019-05-11T08:28:38.393Z,24.90
2019-05-11T08:29:38.570Z,23.90
2019-05-11T08:30:39.383Z,23.50
2019-05-11T08:31:38.644Z,18.80
2019-05-11T08:32:39.367Z,23.00
2019-05-11T08:33:38.998Z,22.60
2019-05-11T08:34:39.832Z,23.10
2019-05-11T08:35:39.339Z,24.20
2019-05-11T08:36:38.333Z,20.90
2019-05-11T08:37:38.925Z,20.40
2019-05-11T08:38:39.321Z,24.50
2019-05-11T08:39:38.310Z,24.80
2019-05-11T08:40:38.315Z,25.10
2019-05-11T08:41:38.653Z,21.80
2019-05-11T08:42:39.285Z,22.10
2019-05-11T08:43:38.835Z,24.00
2019-05-11T08:44:39.276Z,24.50
2019-05-11T08:45:39.247Z,22.70
2019-05-11T08:46:39.266Z,24.70
2019-05-11T08:47:38.255Z,21.60
2019-05-11T08:48:38.930Z,21.60
2019-05-11T08:49:39.239Z,24.90
2019-05-11T08:50:38.421Z,20.90
2019-05-11T08:51:38.729Z,22.30
2019-05-11T08:52:39.236Z,20.60
2019-05-11T08:53:38.858Z,22.30
2019-05-11T08:54:39.223Z,18.30
2019-05-11T08:55:38.429Z,22.70
2019-05-11T08:56:38.495Z,22.20
2019-05-11T08:57:39.202Z,21.20
2019-05-11T08:58:38.237Z,21.90
2019-05-11T08:59:38.277Z,19.10
2019-05-11T09:00:39.221Z,21.70
2019-05-11T09:01:39.311Z,20.20
2019-05-11T09:02:39.165Z,19.80
2019-05-11T09:03:38.824Z,18.90
2019-05-11T09:04:41.928Z,18.60
2019-05-11T09:05:39.150Z,20.10
2019-05-11T09:06:38.137Z,19.70
2019-05-11T09:07:38.524Z,21.50
2019-05-11T09:08:39.125Z,20.40
2019-05-11T09:09:38.232Z,22.20
2019-05-11T09:10:39.792Z,23.10
2019-05-11T09:11:39.119Z,20.30
2019-05-11T09:12:38.376Z,23.70
2019-05-11T09:13:39.469Z,21.40
2019-05-11T09:14:39.109Z,26.50
2019-05-11T09:15:40.605Z,25.40
2019-05-11T09:16:39.110Z,25.60
2019-05-11T09:17:38.347Z,24.40
2019-05-11T09:18:39.104Z,24.80
2019-05-11T09:19:38.786Z,28.60
2019-05-11T09:20:39.107Z,28.60
2019-05-11T09:21:38.495Z,25.50
2019-05-11T09:22:39.093Z,25.30
2019-05-11T09:23:40.696Z,28.30
2019-05-11T09:24:39.096Z,27.40
2019-05-11T09:25:38.564Z,23.80
2019-05-11T09:26:39.177Z,24.80
2019-05-11T09:27:38.107Z,27.60
2019-05-11T09:28:38.508Z,28.10
2019-05-11T09:29:39.098Z,28.30
2019-05-11T09:30:38.118Z,23.90
2019-05-11T09:31:38.358Z,26.80
2019-05-11T09:32:39.107Z,25.70
2019-05-11T09:33:38.561Z,30.50
2019-05-11T09:34:39.090Z,26.00
2019-05-11T09:35:48.533Z,26.90
2019-05-11T09:36:40.137Z,29.40
2019-05-11T09:37:38.328Z,29.70
2019-05-11T09:38:38.459Z,27.50
2019-05-11T09:39:39.054Z,30.00
2019-05-11T09:40:38.708Z,29.20
2019-05-11T09:41:39.050Z,27.60
2019-05-11T09:42:38.883Z,25.80
2019-05-11T09:43:39.701Z,24.40
2019-05-11T09:44:38.647Z,27.50
2019-05-11T09:45:48.185Z,22.90
2019-05-11T09:46:40.023Z,24.70
2019-05-11T09:47:38.686Z,21.80
2019-05-11T09:48:38.987Z,20.60
2019-05-11T09:49:47.142Z,21.30
2019-05-11T09:50:39.976Z,20.90
2019-05-11T09:51:38.193Z,20.60
2019-05-11T09:52:38.970Z,21.40
2019-05-11T09:53:38.876Z,20.40
2019-05-11T09:54:38.943Z,21.30
2019-05-11T09:55:38.892Z,22.40
2019-05-11T09:56:38.933Z,19.90
2019-05-11T09:57:38.295Z,21.30
2019-05-11T09:58:38.930Z,19.70
2019-05-11T09:59:38.607Z,20.50
2019-05-11T10:00:39.036Z,20.30
2019-05-11T10:01:38.067Z,20.00
2019-05-11T10:02:38.699Z,23.40
2019-05-11T10:03:38.924Z,20.60
2019-05-11T10:04:38.212Z,21.50
2019-05-11T10:05:39.665Z,19.90
2019-05-11T10:06:38.792Z,18.60
2019-05-11T10:07:38.834Z,18.40
2019-05-11T10:08:38.204Z,17.30
2019-05-11T10:09:38.849Z,18.70
2019-05-11T10:10:38.473Z,16.40
2019-05-11T10:11:39.946Z,15.60
2019-05-11T10:12:38.807Z,16.90
2019-05-11T10:13:38.442Z,16.30
2019-05-11T10:14:38.789Z,12.40
2019-05-11T10:15:38.523Z,14.20
2019-05-11T10:16:38.874Z,16.90
2019-05-11T10:17:38.401Z,13.90
2019-05-11T10:18:38.790Z,12.70
2019-05-11T10:19:39.605Z,11.90
2019-05-11T10:20:39.176Z,13.50
2019-05-11T10:21:38.774Z,11.40
2019-05-11T10:22:38.473Z,11.70
2019-05-11T10:23:42.163Z,11.10
2019-05-11T10:24:38.481Z,9.60
2019-05-11T10:25:40.435Z,10.50
2019-05-11T10:26:38.667Z,10.20
2019-05-11T10:27:40.072Z,9.90
2019-05-11T10:28:38.906Z,9.40
2019-05-11T10:29:38.815Z,10.90
2019-05-11T10:30:38.567Z,12.30
2019-05-11T10:31:38.828Z,11.30
2019-05-11T10:32:38.070Z,11.60
2019-05-11T10:33:40.796Z,11.10
2019-05-11T10:34:40.373Z,11.30
2019-05-11T10:35:39.640Z,11.30
2019-05-11T10:36:39.222Z,12.20
2019-05-11T10:37:39.168Z,13.20
2019-05-11T10:38:42.687Z,13.00
2019-05-11T10:39:38.992Z,13.40
2019-05-11T10:40:39.942Z,12.80
2019-05-11T10:41:40.297Z,13.30
2019-05-11T10:42:38.446Z,14.20
2019-05-11T10:43:40.583Z,15.90
